sensor_id;sensor_type;location;lat;lon;timestamp;P1;durP1;ratioP1;P2;durP2;ratioP2
47760;SDS011;33524;55.434;38.520;2023-03-11T00:01:02;21.98;;;12.40;;
47760;SDS011;33524;55.434;38.520;2023-03-11T00:03:32;17.48;;;10.57;;
47760;SDS011;33524;55.434;38.520;2023-03-11T00:06:02;17.98;;;10.02;;
47760;SDS011;33524;55.434;38.520;2023-03-11T00:08:32;19.20;;;9.63;;
47760;SDS011;33524;55.434;38.520;2023-03-11T00:11:02;14.82;;;9.27;;
47760;SDS011;33524;55.434;38.520;2023-03-11T00:13:32;15.02;;;8.27;;
47760;SDS011;33524;55.434;38.520;2023-03-11T00:16:03;15.95;;;10.00;;
47760;SDS011;33524;55.434;38.520;2023-03-11T00:18:34;16.77;;;8.98;;
47760;SDS011;33524;55.434;38.520;2023-03-11T00:21:04;14.50;;;8.75;;
47760;SDS011;33524;55.434;38.520;2023-03-11T00:23:34;17.17;;;9.32;;
47760;SDS011;33524;55.434;38.520;2023-03-11T00:26:03;15.05;;;8.75;;
47760;SDS011;33524;55.434;38.520;2023-03-11T00:28:34;19.77;;;9.20;;
47760;SDS011;33524;55.434;38.520;2023-03-11T00:31:04;11.02;;;8.38;;
47760;SDS011;33524;55.434;38.520;2023-03-11T00:33:34;18.65;;;10.38;;
47760;SDS011;33524;55.434;38.520;2023-03-11T00:36:05;14.95;;;8.98;;
47760;SDS011;33524;55.434;38.520;2023-03-11T00:38:35;16.08;;;9.43;;
47760;SDS011;33524;55.434;38.520;2023-03-11T00:41:05;14.70;;;10.15;;
47760;SDS011;33524;55.434;38.520;2023-03-11T00:43:35;17.83;;;9.48;;
47760;SDS011;33524;55.434;38.520;2023-03-11T00:46:04;14.93;;;8.88;;
47760;SDS011;33524;55.434;38.520;2023-03-11T00:48:34;15.40;;;9.23;;
47760;SDS011;33524;55.434;38.520;2023-03-11T00:51:05;12.82;;;8.00;;
47760;SDS011;33524;55.434;38.520;2023-03-11T00:53:36;17.92;;;10.63;;
47760;SDS011;33524;55.434;38.520;2023-03-11T00:56:06;13.48;;;8.80;;
47760;SDS011;33524;55.434;38.520;2023-03-11T00:58:39;12.57;;;8.57;;
47760;SDS011;33524;55.434;38.520;2023-03-11T01:01:10;19.77;;;9.68;;
47760;SDS011;33524;55.434;38.520;2023-03-11T01:03:43;17.52;;;9.82;;
47760;SDS011;33524;55.434;38.520;2023-03-11T01:06:16;20.05;;;9.35;;
47760;SDS011;33524;55.434;38.520;2023-03-11T01:08:46;13.93;;;9.57;;
47760;SDS011;33524;55.434;38.520;2023-03-11T01:11:17;15.88;;;10.20;;
47760;SDS011;33524;55.434;38.520;2023-03-11T01:13:47;17.92;;;10.63;;
47760;SDS011;33524;55.434;38.520;2023-03-11T01:16:16;16.10;;;8.32;;
47760;SDS011;33524;55.434;38.520;2023-03-11T01:18:46;15.88;;;9.77;;
47760;SDS011;33524;55.434;38.520;2023-03-11T01:21:16;14.20;;;9.45;;
47760;SDS011;33524;55.434;38.520;2023-03-11T01:23:46;17.62;;;11.10;;
47760;SDS011;33524;55.434;38.520;2023-03-11T01:26:15;14.98;;;9.27;;
47760;SDS011;33524;55.434;38.520;2023-03-11T01:28:45;16.10;;;9.98;;
47760;SDS011;33524;55.434;38.520;2023-03-11T01:31:15;16.73;;;9.13;;
47760;SDS011;33524;55.434;38.520;2023-03-11T01:33:44;14.70;;;9.93;;
47760;SDS011;33524;55.434;38.520;2023-03-11T01:36:14;16.05;;;10.20;;
47760;SDS011;33524;55.434;38.520;2023-03-11T01:38:47;18.50;;;10.88;;
47760;SDS011;33524;55.434;38.520;2023-03-11T01:41:17;15.35;;;9.52;;
47760;SDS011;33524;55.434;38.520;2023-03-11T01:43:47;18.45;;;9.63;;
47760;SDS011;33524;55.434;38.520;2023-03-11T01:46:26;16.23;;;8.95;;
47760;SDS011;33524;55.434;38.520;2023-03-11T01:49:00;19.30;;;10.57;;
47760;SDS011;33524;55.434;38.520;2023-03-11T01:51:36;14.60;;;9.13;;
47760;SDS011;33524;55.434;38.520;2023-03-11T01:54:12;19.15;;;10.55;;
47760;SDS011;33524;55.434;38.520;2023-03-11T01:56:44;19.12;;;10.27;;
47760;SDS011;33524;55.434;38.520;2023-03-11T01:59:20;16.35;;;9.27;;
47760;SDS011;33524;55.434;38.520;2023-03-11T02:02:10;16.65;;;10.48;;
47760;SDS011;33524;55.434;38.520;2023-03-11T02:04:46;15.52;;;9.82;;
47760;SDS011;33524;55.434;38.520;2023-03-11T02:07:17;17.75;;;10.35;;
47760;SDS011;33524;55.434;38.520;2023-03-11T02:09:50;17.55;;;10.02;;
47760;SDS011;33524;55.434;38.520;2023-03-11T02:12:21;15.85;;;10.07;;
47760;SDS011;33524;55.434;38.520;2023-03-11T02:14:51;11.77;;;7.18;;
47760;SDS011;33524;55.434;38.520;2023-03-11T02:17:22;13.23;;;8.75;;
47760;SDS011;33524;55.434;38.520;2023-03-11T02:23:01;17.73;;;8.48;;
47760;SDS011;33524;55.434;38.520;2023-03-11T02:28:03;14.00;;;8.57;;
47760;SDS011;33524;55.434;38.520;2023-03-11T02:30:39;11.30;;;7.28;;
47760;SDS011;33524;55.434;38.520;2023-03-11T02:33:11;12.40;;;6.07;;
47760;SDS011;33524;55.434;38.520;2023-03-11T02:35:44;14.57;;;7.43;;
47760;SDS011;33524;55.434;38.520;2023-03-11T02:38:14;10.95;;;6.28;;
47760;SDS011;33524;55.434;38.520;2023-03-11T02:43:21;16.92;;;8.07;;
47760;SDS011;33524;55.434;38.520;2023-03-11T02:46:01;11.43;;;6.43;;
47760;SDS011;33524;55.434;38.520;2023-03-11T02:48:32;11.80;;;6.37;;
47760;SDS011;33524;55.434;38.520;2023-03-11T02:51:03;13.45;;;6.55;;
47760;SDS011;33524;55.434;38.520;2023-03-11T02:53:34;12.68;;;7.65;;
47760;SDS011;33524;55.434;38.520;2023-03-11T02:56:09;8.07;;;5.35;;
47760;SDS011;33524;55.434;38.520;2023-03-11T02:58:38;8.43;;;5.10;;
47760;SDS011;33524;55.434;38.520;2023-03-11T03:01:09;10.65;;;6.20;;
47760;SDS011;33524;55.434;38.520;2023-03-11T03:03:42;12.68;;;7.90;;
47760;SDS011;33524;55.434;38.520;2023-03-11T03:06:12;10.93;;;7.05;;
47760;SDS011;33524;55.434;38.520;2023-03-11T03:08:41;12.00;;;5.55;;
47760;SDS011;33524;55.434;38.520;2023-03-11T03:11:11;13.45;;;5.65;;
47760;SDS011;33524;55.434;38.520;2023-03-11T03:13:41;9.73;;;6.37;;
47760;SDS011;33524;55.434;38.520;2023-03-11T03:16:11;11.63;;;5.97;;
47760;SDS011;33524;55.434;38.520;2023-03-11T03:18:40;8.82;;;6.95;;
47760;SDS011;33524;55.434;38.520;2023-03-11T03:21:10;8.40;;;4.70;;
47760;SDS011;33524;55.434;38.520;2023-03-11T03:23:40;6.50;;;4.22;;
47760;SDS011;33524;55.434;38.520;2023-03-11T03:26:11;9.10;;;4.78;;
47760;SDS011;33524;55.434;38.520;2023-03-11T03:28:42;9.90;;;6.15;;
47760;SDS011;33524;55.434;38.520;2023-03-11T03:31:12;9.30;;;5.50;;
47760;SDS011;33524;55.434;38.520;2023-03-11T03:33:43;8.32;;;4.07;;
47760;SDS011;33524;55.434;38.520;2023-03-11T03:36:13;8.20;;;5.25;;
47760;SDS011;33524;55.434;38.520;2023-03-11T03:38:44;10.60;;;5.97;;
47760;SDS011;33524;55.434;38.520;2023-03-11T03:41:14;8.50;;;4.90;;
47760;SDS011;33524;55.434;38.520;2023-03-11T03:43:44;10.45;;;3.30;;
47760;SDS011;33524;55.434;38.520;2023-03-11T03:46:13;6.18;;;4.07;;
47760;SDS011;33524;55.434;38.520;2023-03-11T03:48:45;6.10;;;3.85;;
47760;SDS011;33524;55.434;38.520;2023-03-11T03:51:14;8.57;;;4.28;;
47760;SDS011;33524;55.434;38.520;2023-03-11T03:53:47;7.40;;;3.70;;
47760;SDS011;33524;55.434;38.520;2023-03-11T03:56:16;7.05;;;4.78;;
47760;SDS011;33524;55.434;38.520;2023-03-11T03:58:47;8.40;;;3.58;;
47760;SDS011;33524;55.434;38.520;2023-03-11T04:01:18;4.62;;;3.35;;
47760;SDS011;33524;55.434;38.520;2023-03-11T04:03:48;8.75;;;4.37;;
47760;SDS011;33524;55.434;38.520;2023-03-11T04:08:51;4.53;;;2.47;;
47760;SDS011;33524;55.434;38.520;2023-03-11T04:11:22;4.97;;;3.30;;
47760;SDS011;33524;55.434;38.520;2023-03-11T04:13:52;5.75;;;3.12;;
47760;SDS011;33524;55.434;38.520;2023-03-11T04:16:23;6.97;;;4.72;;
47760;SDS011;33524;55.434;38.520;2023-03-11T04:18:55;7.03;;;3.83;;
47760;SDS011;33524;55.434;38.520;2023-03-11T04:21:25;9.25;;;4.30;;
47760;SDS011;33524;55.434;38.520;2023-03-11T04:23:57;6.20;;;4.15;;
47760;SDS011;33524;55.434;38.520;2023-03-11T04:26:27;8.10;;;4.87;;
47760;SDS011;33524;55.434;38.520;2023-03-11T04:28:57;6.82;;;3.62;;
47760;SDS011;33524;55.434;38.520;2023-03-11T04:31:28;5.93;;;3.53;;
47760;SDS011;33524;55.434;38.520;2023-03-11T04:33:59;5.93;;;2.92;;
47760;SDS011;33524;55.434;38.520;2023-03-11T04:36:28;4.70;;;3.62;;
47760;SDS011;33524;55.434;38.520;2023-03-11T04:38:59;3.75;;;2.42;;
47760;SDS011;33524;55.434;38.520;2023-03-11T04:41:29;4.87;;;3.15;;
47760;SDS011;33524;55.434;38.520;2023-03-11T04:43:59;5.95;;;3.58;;
47760;SDS011;33524;55.434;38.520;2023-03-11T04:46:28;5.35;;;3.65;;
47760;SDS011;33524;55.434;38.520;2023-03-11T04:48:59;5.20;;;2.97;;
47760;SDS011;33524;55.434;38.520;2023-03-11T04:51:29;4.28;;;3.05;;
47760;SDS011;33524;55.434;38.520;2023-03-11T04:53:58;6.50;;;3.25;;
47760;SDS011;33524;55.434;38.520;2023-03-11T04:56:29;5.70;;;3.35;;
47760;SDS011;33524;55.434;38.520;2023-03-11T04:58:59;4.30;;;3.03;;
47760;SDS011;33524;55.434;38.520;2023-03-11T05:01:29;4.82;;;3.20;;
47760;SDS011;33524;55.434;38.520;2023-03-11T05:04:01;4.47;;;2.42;;
47760;SDS011;33524;55.434;38.520;2023-03-11T05:06:31;5.97;;;3.33;;
47760;SDS011;33524;55.434;38.520;2023-03-11T05:09:01;4.90;;;3.15;;
47760;SDS011;33524;55.434;38.520;2023-03-11T05:11:33;6.37;;;3.87;;
47760;SDS011;33524;55.434;38.520;2023-03-11T05:14:02;4.93;;;3.00;;
47760;SDS011;33524;55.434;38.520;2023-03-11T05:16:32;5.20;;;2.78;;
47760;SDS011;33524;55.434;38.520;2023-03-11T05:19:03;5.50;;;2.87;;
47760;SDS011;33524;55.434;38.520;2023-03-11T05:21:52;7.97;;;3.17;;
47760;SDS011;33524;55.434;38.520;2023-03-11T05:24:24;9.55;;;4.72;;
47760;SDS011;33524;55.434;38.520;2023-03-11T05:26:54;4.97;;;2.80;;
47760;SDS011;33524;55.434;38.520;2023-03-11T05:29:26;6.28;;;3.90;;
47760;SDS011;33524;55.434;38.520;2023-03-11T05:31:56;8.60;;;5.07;;
47760;SDS011;33524;55.434;38.520;2023-03-11T05:34:28;6.25;;;3.37;;
47760;SDS011;33524;55.434;38.520;2023-03-11T05:36:58;3.97;;;2.75;;
47760;SDS011;33524;55.434;38.520;2023-03-11T05:42:00;2.80;;;2.30;;
47760;SDS011;33524;55.434;38.520;2023-03-11T05:44:30;6.82;;;3.42;;
47760;SDS011;33524;55.434;38.520;2023-03-11T05:47:01;4.05;;;2.58;;
47760;SDS011;33524;55.434;38.520;2023-03-11T05:49:31;5.93;;;3.28;;
47760;SDS011;33524;55.434;38.520;2023-03-11T05:52:00;5.37;;;3.83;;
47760;SDS011;33524;55.434;38.520;2023-03-11T05:54:32;4.25;;;2.20;;
47760;SDS011;33524;55.434;38.520;2023-03-11T05:57:01;3.60;;;2.92;;
47760;SDS011;33524;55.434;38.520;2023-03-11T05:59:31;4.22;;;2.70;;
47760;SDS011;33524;55.434;38.520;2023-03-11T06:02:03;3.22;;;2.75;;
47760;SDS011;33524;55.434;38.520;2023-03-11T06:04:33;3.87;;;2.47;;
47760;SDS011;33524;55.434;38.520;2023-03-11T06:07:02;3.15;;;2.35;;
47760;SDS011;33524;55.434;38.520;2023-03-11T06:09:33;5.85;;;3.28;;
47760;SDS011;33524;55.434;38.520;2023-03-11T06:12:06;6.20;;;3.10;;
47760;SDS011;33524;55.434;38.520;2023-03-11T06:14:37;3.33;;;2.53;;
47760;SDS011;33524;55.434;38.520;2023-03-11T06:17:06;3.05;;;2.30;;
47760;SDS011;33524;55.434;38.520;2023-03-11T06:19:36;1.80;;;1.65;;
47760;SDS011;33524;55.434;38.520;2023-03-11T06:22:07;4.25;;;2.47;;
47760;SDS011;33524;55.434;38.520;2023-03-11T06:24:38;6.37;;;3.50;;
47760;SDS011;33524;55.434;38.520;2023-03-11T06:27:07;6.90;;;3.42;;
47760;SDS011;33524;55.434;38.520;2023-03-11T06:29:39;4.37;;;2.30;;
47760;SDS011;33524;55.434;38.520;2023-03-11T06:32:08;3.53;;;1.90;;
47760;SDS011;33524;55.434;38.520;2023-03-11T06:34:38;3.30;;;2.45;;
47760;SDS011;33524;55.434;38.520;2023-03-11T06:37:08;2.40;;;2.20;;
47760;SDS011;33524;55.434;38.520;2023-03-11T06:39:39;3.80;;;1.25;;
47760;SDS011;33524;55.434;38.520;2023-03-11T06:42:10;7.75;;;4.53;;
47760;SDS011;33524;55.434;38.520;2023-03-11T06:44:40;6.72;;;3.65;;
47760;SDS011;33524;55.434;38.520;2023-03-11T06:47:10;1.25;;;1.00;;
47760;SDS011;33524;55.434;38.520;2023-03-11T06:49:42;1.97;;;1.67;;
47760;SDS011;33524;55.434;38.520;2023-03-11T06:52:12;3.70;;;2.42;;
47760;SDS011;33524;55.434;38.520;2023-03-11T06:54:44;2.30;;;1.23;;
47760;SDS011;33524;55.434;38.520;2023-03-11T06:57:17;3.55;;;2.05;;
47760;SDS011;33524;55.434;38.520;2023-03-11T06:59:47;3.10;;;1.48;;
47760;SDS011;33524;55.434;38.520;2023-03-11T07:02:17;3.85;;;2.35;;
47760;SDS011;33524;55.434;38.520;2023-03-11T07:04:48;4.65;;;2.15;;
47760;SDS011;33524;55.434;38.520;2023-03-11T07:07:18;4.15;;;2.97;;
47760;SDS011;33524;55.434;38.520;2023-03-11T07:09:48;6.50;;;2.60;;
47760;SDS011;33524;55.434;38.520;2023-03-11T07:12:18;3.20;;;2.28;;
47760;SDS011;33524;55.434;38.520;2023-03-11T07:14:54;4.00;;;2.85;;
47760;SDS011;33524;55.434;38.520;2023-03-11T07:17:25;4.87;;;2.35;;
47760;SDS011;33524;55.434;38.520;2023-03-11T07:19:55;4.20;;;1.83;;
47760;SDS011;33524;55.434;38.520;2023-03-11T07:22:25;3.30;;;1.62;;
47760;SDS011;33524;55.434;38.520;2023-03-11T07:24:55;1.50;;;1.40;;
47760;SDS011;33524;55.434;38.520;2023-03-11T07:27:26;1.92;;;1.33;;
47760;SDS011;33524;55.434;38.520;2023-03-11T07:29:55;1.58;;;1.00;;
47760;SDS011;33524;55.434;38.520;2023-03-11T07:32:24;3.50;;;2.50;;
47760;SDS011;33524;55.434;38.520;2023-03-11T07:34:54;4.22;;;2.25;;
47760;SDS011;33524;55.434;38.520;2023-03-11T07:37:23;1.83;;;1.50;;
47760;SDS011;33524;55.434;38.520;2023-03-11T07:39:53;2.70;;;2.30;;
47760;SDS011;33524;55.434;38.520;2023-03-11T07:42:23;2.83;;;1.62;;
47760;SDS011;33524;55.434;38.520;2023-03-11T07:44:53;1.23;;;1.05;;
47760;SDS011;33524;55.434;38.520;2023-03-11T07:47:22;2.75;;;1.77;;
47760;SDS011;33524;55.434;38.520;2023-03-11T07:49:55;3.10;;;1.60;;
47760;SDS011;33524;55.434;38.520;2023-03-11T07:52:25;3.60;;;2.47;;
47760;SDS011;33524;55.434;38.520;2023-03-11T07:54:58;1.73;;;1.33;;
47760;SDS011;33524;55.434;38.520;2023-03-11T07:57:28;4.43;;;2.72;;
47760;SDS011;33524;55.434;38.520;2023-03-11T07:59:58;1.87;;;1.37;;
47760;SDS011;33524;55.434;38.520;2023-03-11T08:02:29;4.12;;;1.75;;
47760;SDS011;33524;55.434;38.520;2023-03-11T08:04:59;6.10;;;2.72;;
47760;SDS011;33524;55.434;38.520;2023-03-11T08:07:30;4.57;;;2.35;;
47760;SDS011;33524;55.434;38.520;2023-03-11T08:10:01;1.67;;;1.58;;
47760;SDS011;33524;55.434;38.520;2023-03-11T08:12:39;2.10;;;1.50;;
47760;SDS011;33524;55.434;38.520;2023-03-11T08:15:09;2.30;;;1.37;;
47760;SDS011;33524;55.434;38.520;2023-03-11T08:17:39;3.25;;;1.87;;
47760;SDS011;33524;55.434;38.520;2023-03-11T08:20:09;2.08;;;1.62;;
47760;SDS011;33524;55.434;38.520;2023-03-11T08:22:39;0.65;;;0.65;;
47760;SDS011;33524;55.434;38.520;2023-03-11T08:25:24;4.93;;;2.37;;
47760;SDS011;33524;55.434;38.520;2023-03-11T08:27:54;6.28;;;2.78;;
47760;SDS011;33524;55.434;38.520;2023-03-11T08:30:25;2.90;;;1.75;;
47760;SDS011;33524;55.434;38.520;2023-03-11T08:32:54;2.87;;;2.55;;
47760;SDS011;33524;55.434;38.520;2023-03-11T08:35:24;5.07;;;2.47;;
47760;SDS011;33524;55.434;38.520;2023-03-11T08:37:54;4.20;;;2.78;;
47760;SDS011;33524;55.434;38.520;2023-03-11T08:40:25;1.17;;;1.02;;
47760;SDS011;33524;55.434;38.520;2023-03-11T08:42:55;4.37;;;1.50;;
47760;SDS011;33524;55.434;38.520;2023-03-11T08:45:25;2.90;;;2.22;;
47760;SDS011;33524;55.434;38.520;2023-03-11T08:47:54;4.32;;;2.85;;
47760;SDS011;33524;55.434;38.520;2023-03-11T08:50:24;3.78;;;2.03;;
47760;SDS011;33524;55.434;38.520;2023-03-11T08:52:54;4.30;;;2.67;;
47760;SDS011;33524;55.434;38.520;2023-03-11T08:55:28;5.47;;;3.17;;
47760;SDS011;33524;55.434;38.520;2023-03-11T08:57:58;4.37;;;3.97;;
47760;SDS011;33524;55.434;38.520;2023-03-11T09:00:28;3.67;;;2.30;;
47760;SDS011;33524;55.434;38.520;2023-03-11T09:02:57;5.57;;;3.10;;
47760;SDS011;33524;55.434;38.520;2023-03-11T09:05:28;2.47;;;1.90;;
47760;SDS011;33524;55.434;38.520;2023-03-11T09:08:05;5.53;;;2.90;;
47760;SDS011;33524;55.434;38.520;2023-03-11T09:10:35;3.62;;;2.17;;
47760;SDS011;33524;55.434;38.520;2023-03-11T09:13:05;5.10;;;2.35;;
47760;SDS011;33524;55.434;38.520;2023-03-11T09:15:35;1.55;;;1.40;;
47760;SDS011;33524;55.434;38.520;2023-03-11T09:18:06;6.90;;;2.42;;
47760;SDS011;33524;55.434;38.520;2023-03-11T09:20:39;2.67;;;1.73;;
47760;SDS011;33524;55.434;38.520;2023-03-11T09:23:10;3.25;;;1.70;;
47760;SDS011;33524;55.434;38.520;2023-03-11T09:25:41;3.30;;;2.28;;
47760;SDS011;33524;55.434;38.520;2023-03-11T09:28:11;3.30;;;1.90;;
47760;SDS011;33524;55.434;38.520;2023-03-11T09:30:41;2.85;;;1.70;;
47760;SDS011;33524;55.434;38.520;2023-03-11T09:33:10;4.32;;;2.87;;
47760;SDS011;33524;55.434;38.520;2023-03-11T09:35:40;1.95;;;1.65;;
47760;SDS011;33524;55.434;38.520;2023-03-11T09:38:10;2.72;;;2.10;;
47760;SDS011;33524;55.434;38.520;2023-03-11T09:49:28;2.55;;;1.50;;
47760;SDS011;33524;55.434;38.520;2023-03-11T09:52:08;2.70;;;1.92;;
47760;SDS011;33524;55.434;38.520;2023-03-11T09:54:46;2.20;;;1.27;;
47760;SDS011;33524;55.434;38.520;2023-03-11T09:57:23;4.60;;;2.33;;
47760;SDS011;33524;55.434;38.520;2023-03-11T09:59:56;3.00;;;1.50;;
47760;SDS011;33524;55.434;38.520;2023-03-11T10:02:38;4.53;;;2.33;;
47760;SDS011;33524;55.434;38.520;2023-03-11T10:05:17;3.30;;;2.37;;
47760;SDS011;33524;55.434;38.520;2023-03-11T10:07:59;3.40;;;2.05;;
47760;SDS011;33524;55.434;38.520;2023-03-11T10:10:42;3.35;;;2.05;;
47760;SDS011;33524;55.434;38.520;2023-03-11T10:16:04;3.65;;;2.53;;
47760;SDS011;33524;55.434;38.520;2023-03-11T10:22:13;4.30;;;2.25;;
47760;SDS011;33524;55.434;38.520;2023-03-11T10:25:19;3.58;;;1.98;;
47760;SDS011;33524;55.434;38.520;2023-03-11T10:27:57;3.00;;;2.22;;
47760;SDS011;33524;55.434;38.520;2023-03-11T10:31:21;4.07;;;1.80;;
47760;SDS011;33524;55.434;38.520;2023-03-11T10:39:25;5.05;;;2.65;;
47760;SDS011;33524;55.434;38.520;2023-03-11T10:41:58;6.12;;;2.97;;
47760;SDS011;33524;55.434;38.520;2023-03-11T10:44:33;1.42;;;1.33;;
47760;SDS011;33524;55.434;38.520;2023-03-11T10:47:04;3.12;;;2.25;;
47760;SDS011;33524;55.434;38.520;2023-03-11T10:49:35;4.12;;;2.78;;
47760;SDS011;33524;55.434;38.520;2023-03-11T10:52:06;2.87;;;2.12;;
47760;SDS011;33524;55.434;38.520;2023-03-11T10:54:39;3.15;;;1.98;;
47760;SDS011;33524;55.434;38.520;2023-03-11T10:59:55;2.53;;;2.03;;
47760;SDS011;33524;55.434;38.520;2023-03-11T11:02:30;5.50;;;2.90;;
47760;SDS011;33524;55.434;38.520;2023-03-11T11:08:08;2.90;;;1.77;;
47760;SDS011;33524;55.434;38.520;2023-03-11T11:10:53;2.80;;;2.05;;
47760;SDS011;33524;55.434;38.520;2023-03-11T11:13:27;5.30;;;2.90;;
47760;SDS011;33524;55.434;38.520;2023-03-11T11:16:00;4.05;;;2.67;;
47760;SDS011;33524;55.434;38.520;2023-03-11T11:18:36;4.53;;;2.83;;
47760;SDS011;33524;55.434;38.520;2023-03-11T11:21:13;2.72;;;2.03;;
47760;SDS011;33524;55.434;38.520;2023-03-11T11:24:02;5.65;;;2.67;;
47760;SDS011;33524;55.434;38.520;2023-03-11T11:29:41;3.45;;;2.62;;
47760;SDS011;33524;55.434;38.520;2023-03-11T11:34:53;6.45;;;3.00;;
47760;SDS011;33524;55.434;38.520;2023-03-11T11:37:33;3.60;;;2.10;;
47760;SDS011;33524;55.434;38.520;2023-03-11T11:40:35;4.32;;;2.42;;
47760;SDS011;33524;55.434;38.520;2023-03-11T11:48:27;5.70;;;3.05;;
47760;SDS011;33524;55.434;38.520;2023-03-11T11:51:00;4.07;;;2.58;;
47760;SDS011;33524;55.434;38.520;2023-03-11T11:53:41;2.97;;;2.08;;
47760;SDS011;33524;55.434;38.520;2023-03-11T11:56:24;4.82;;;3.47;;
47760;SDS011;33524;55.434;38.520;2023-03-11T11:58:54;4.18;;;2.65;;
47760;SDS011;33524;55.434;38.520;2023-03-11T12:07:54;5.10;;;2.70;;
47760;SDS011;33524;55.434;38.520;2023-03-11T12:09:44;2.30;;;1.35;;
47760;SDS011;33524;55.434;38.520;2023-03-11T12:15:58;3.42;;;2.55;;
47760;SDS011;33524;55.434;38.520;2023-03-11T12:18:32;5.25;;;3.22;;
47760;SDS011;33524;55.434;38.520;2023-03-11T12:21:11;6.40;;;3.75;;
47760;SDS011;33524;55.434;38.520;2023-03-11T12:24:04;7.90;;;3.97;;
47760;SDS011;33524;55.434;38.520;2023-03-11T12:26:57;5.80;;;3.17;;
47760;SDS011;33524;55.434;38.520;2023-03-11T12:29:35;4.00;;;2.62;;
47760;SDS011;33524;55.434;38.520;2023-03-11T12:32:43;2.25;;;1.33;;
47760;SDS011;33524;55.434;38.520;2023-03-11T12:35:02;3.33;;;2.50;;
47760;SDS011;33524;55.434;38.520;2023-03-11T12:37:46;6.20;;;3.58;;
47760;SDS011;33524;55.434;38.520;2023-03-11T12:40:37;4.57;;;3.00;;
47760;SDS011;33524;55.434;38.520;2023-03-11T12:43:55;4.80;;;2.37;;
47760;SDS011;33524;55.434;38.520;2023-03-11T12:46:58;5.72;;;3.20;;
47760;SDS011;33524;55.434;38.520;2023-03-11T12:49:29;5.12;;;2.37;;
47760;SDS011;33524;55.434;38.520;2023-03-11T13:00:02;5.40;;;3.10;;
47760;SDS011;33524;55.434;38.520;2023-03-11T13:05:49;4.10;;;2.45;;
47760;SDS011;33524;55.434;38.520;2023-03-11T13:08:57;2.87;;;2.42;;
47760;SDS011;33524;55.434;38.520;2023-03-11T13:11:25;4.05;;;2.80;;
47760;SDS011;33524;55.434;38.520;2023-03-11T13:14:16;2.95;;;2.37;;
47760;SDS011;33524;55.434;38.520;2023-03-11T13:16:47;3.15;;;1.80;;
47760;SDS011;33524;55.434;38.520;2023-03-11T13:21:58;5.95;;;2.20;;
47760;SDS011;33524;55.434;38.520;2023-03-11T13:27:18;1.50;;;1.37;;
47760;SDS011;33524;55.434;38.520;2023-03-11T13:30:31;1.87;;;1.52;;
47760;SDS011;33524;55.434;38.520;2023-03-11T13:32:52;4.43;;;2.20;;
47760;SDS011;33524;55.434;38.520;2023-03-11T13:38:35;3.72;;;2.08;;
47760;SDS011;33524;55.434;38.520;2023-03-11T13:41:15;2.20;;;2.05;;
47760;SDS011;33524;55.434;38.520;2023-03-11T13:43:49;1.80;;;1.70;;
47760;SDS011;33524;55.434;38.520;2023-03-11T13:49:22;1.77;;;1.35;;
47760;SDS011;33524;55.434;38.520;2023-03-11T13:52:06;3.55;;;2.30;;
47760;SDS011;33524;55.434;38.520;2023-03-11T13:54:38;5.77;;;2.30;;
47760;SDS011;33524;55.434;38.520;2023-03-11T13:57:16;3.53;;;1.92;;
47760;SDS011;33524;55.434;38.520;2023-03-11T13:59:50;5.00;;;2.95;;
47760;SDS011;33524;55.434;38.520;2023-03-11T14:02:21;5.68;;;3.20;;
47760;SDS011;33524;55.434;38.520;2023-03-11T14:04:56;8.90;;;2.17;;
47760;SDS011;33524;55.434;38.520;2023-03-11T14:07:33;3.15;;;2.12;;
47760;SDS011;33524;55.434;38.520;2023-03-11T14:12:42;6.70;;;3.05;;
47760;SDS011;33524;55.434;38.520;2023-03-11T14:15:12;3.25;;;2.55;;
47760;SDS011;33524;55.434;38.520;2023-03-11T14:17:47;4.53;;;2.50;;
47760;SDS011;33524;55.434;38.520;2023-03-11T14:20:18;3.08;;;2.15;;
47760;SDS011;33524;55.434;38.520;2023-03-11T14:22:50;3.78;;;2.12;;
47760;SDS011;33524;55.434;38.520;2023-03-11T14:25:21;3.30;;;2.28;;
47760;SDS011;33524;55.434;38.520;2023-03-11T14:27:55;3.30;;;2.55;;
47760;SDS011;33524;55.434;38.520;2023-03-11T14:30:26;4.20;;;1.77;;
47760;SDS011;33524;55.434;38.520;2023-03-11T14:32:57;3.58;;;2.17;;
47760;SDS011;33524;55.434;38.520;2023-03-11T14:35:29;5.43;;;3.45;;
47760;SDS011;33524;55.434;38.520;2023-03-11T14:37:59;3.78;;;2.17;;
47760;SDS011;33524;55.434;38.520;2023-03-11T14:40:30;5.95;;;2.62;;
47760;SDS011;33524;55.434;38.520;2023-03-11T14:43:02;3.70;;;2.50;;
47760;SDS011;33524;55.434;38.520;2023-03-11T14:45:34;2.30;;;1.85;;
47760;SDS011;33524;55.434;38.520;2023-03-11T14:48:07;7.82;;;3.00;;
47760;SDS011;33524;55.434;38.520;2023-03-11T14:50:40;3.90;;;2.65;;
47760;SDS011;33524;55.434;38.520;2023-03-11T14:53:16;4.90;;;2.97;;
47760;SDS011;33524;55.434;38.520;2023-03-11T14:55:55;4.55;;;2.40;;
47760;SDS011;33524;55.434;38.520;2023-03-11T14:58:33;5.22;;;2.37;;
47760;SDS011;33524;55.434;38.520;2023-03-11T15:01:10;5.18;;;2.47;;
47760;SDS011;33524;55.434;38.520;2023-03-11T15:03:43;5.00;;;2.70;;
47760;SDS011;33524;55.434;38.520;2023-03-11T15:06:16;6.12;;;2.83;;
47760;SDS011;33524;55.434;38.520;2023-03-11T15:08:46;6.30;;;3.97;;
47760;SDS011;33524;55.434;38.520;2023-03-11T15:11:17;6.15;;;2.47;;
47760;SDS011;33524;55.434;38.520;2023-03-11T15:13:49;7.50;;;3.78;;
47760;SDS011;33524;55.434;38.520;2023-03-11T15:16:34;5.93;;;3.62;;
47760;SDS011;33524;55.434;38.520;2023-03-11T15:19:35;4.37;;;2.95;;
47760;SDS011;33524;55.434;38.520;2023-03-11T15:21:51;3.40;;;2.37;;
47760;SDS011;33524;55.434;38.520;2023-03-11T15:24:25;3.50;;;1.67;;
47760;SDS011;33524;55.434;38.520;2023-03-11T15:26:56;5.97;;;4.32;;
47760;SDS011;33524;55.434;38.520;2023-03-11T15:29:28;6.05;;;3.60;;
47760;SDS011;33524;55.434;38.520;2023-03-11T15:31:56;4.97;;;3.10;;
47760;SDS011;33524;55.434;38.520;2023-03-11T15:34:26;4.53;;;3.00;;
47760;SDS011;33524;55.434;38.520;2023-03-11T15:37:01;5.95;;;3.22;;
47760;SDS011;33524;55.434;38.520;2023-03-11T15:39:43;9.60;;;6.18;;
47760;SDS011;33524;55.434;38.520;2023-03-11T15:42:13;7.90;;;4.85;;
47760;SDS011;33524;55.434;38.520;2023-03-11T15:44:56;9.32;;;5.28;;
47760;SDS011;33524;55.434;38.520;2023-03-11T15:47:29;9.93;;;4.00;;
47760;SDS011;33524;55.434;38.520;2023-03-11T15:50:00;10.13;;;4.03;;
47760;SDS011;33524;55.434;38.520;2023-03-11T15:52:29;7.93;;;3.37;;
47760;SDS011;33524;55.434;38.520;2023-03-11T15:54:57;6.22;;;4.03;;
47760;SDS011;33524;55.434;38.520;2023-03-11T15:57:25;5.65;;;3.53;;
47760;SDS011;33524;55.434;38.520;2023-03-11T15:59:55;5.70;;;3.35;;
47760;SDS011;33524;55.434;38.520;2023-03-11T16:02:27;4.60;;;2.83;;
47760;SDS011;33524;55.434;38.520;2023-03-11T16:04:57;6.10;;;4.05;;
47760;SDS011;33524;55.434;38.520;2023-03-11T16:07:25;11.05;;;4.35;;
47760;SDS011;33524;55.434;38.520;2023-03-11T16:10:06;5.53;;;3.10;;
47760;SDS011;33524;55.434;38.520;2023-03-11T16:12:34;6.90;;;3.15;;
47760;SDS011;33524;55.434;38.520;2023-03-11T16:15:02;8.63;;;4.22;;
47760;SDS011;33524;55.434;38.520;2023-03-11T16:17:30;7.75;;;4.00;;
47760;SDS011;33524;55.434;38.520;2023-03-11T16:20:14;5.28;;;2.72;;
47760;SDS011;33524;55.434;38.520;2023-03-11T16:22:42;7.87;;;3.08;;
47760;SDS011;33524;55.434;38.520;2023-03-11T16:25:13;6.47;;;3.85;;
47760;SDS011;33524;55.434;38.520;2023-03-11T16:27:52;5.75;;;3.00;;
47760;SDS011;33524;55.434;38.520;2023-03-11T16:30:21;5.32;;;3.37;;